Time;durP1;ratioP1;P1;durP2;ratioP2;P2;SDS_P1;SDS_P2;PMS_P1;PMS_P2;Temp;Humidity;BMP_temperature;BMP_pressure;BME280_temperature;BME280_humidity;BME280_pressure;Samples;Min_cycle;Max_cycle;Signal;HPM_P1;HPM_P2
2022/03/04 00:02:19;;;;;;;;;;;1.20;99.90;;;;;;5070951;28;19924;-64
2022/03/04 00:04:45;;;;;;;;;;;1.20;99.90;;;;;;5070273;28;19976;-64
2022/03/04 00:07:11;;;;;;;;;;;1.10;99.90;;;;;;5069803;28;20267;-65
2022/03/04 00:09:36;;;;;;;;;;;1.10;99.90;;;;;;5071593;28;20358;-66
2022/03/04 00:12:03;;;;;;;;;;;1.10;99.90;;;;;;5069667;28;20020;-65
2022/03/04 00:14:29;;;;;;;;;;;1.10;99.90;;;;;;5070479;28;19931;-64
2022/03/04 00:16:55;;;;;;;;;;;1.10;99.90;;;;;;5070028;28;20385;-65
2022/03/04 00:19:20;;;;;;;;;;;1.00;99.90;;;;;;5069809;28;19931;-65
2022/03/04 00:21:48;;;;;;;;;;;1.00;99.90;;;;;;5070091;28;19925;-64
2022/03/04 00:24:15;;;;;;;;;;;1.40;99.90;;;;;;5052787;28;19924;-64
2022/03/04 00:26:41;;;;;;;;;;;0.90;99.90;;;;;;5069657;28;19925;-66
2022/03/04 00:29:07;;;;;;;;;;;0.90;99.90;;;;;;5069287;28;19974;-65
2022/03/04 00:31:33;;;;;;;;;;;0.90;99.90;;;;;;5068806;28;20034;-66
2022/03/04 00:33:59;;;;;;;;;;;0.90;99.90;;;;;;5053428;28;19925;-65
2022/03/04 00:36:25;;;;;;;;;;;0.80;99.90;;;;;;5070789;28;19948;-66
2022/03/04 00:38:51;;;;;;;;;;;0.80;99.90;;;;;;5053341;28;20393;-65
2022/03/04 00:41:18;;;;;;;;;;;0.80;99.90;;;;;;5069727;28;20019;-65
2022/03/04 00:43:44;;;;;;;;;;;0.80;99.90;;;;;;5071169;28;19924;-68
2022/03/04 00:46:11;;;;;;;;;;;0.80;99.90;;;;;;5069571;28;19947;-65
2022/03/04 00:48:37;;;;;;;;;;;0.70;99.90;;;;;;5070057;28;19924;-66
2022/03/04 00:51:03;;;;;;;;;;;0.70;99.90;;;;;;5053202;28;20020;-69
2022/03/04 00:53:30;;;;;;;;;;;0.70;99.90;;;;;;5070081;28;20035;-65
2022/03/04 00:55:56;;;;;;;;;;;0.70;99.90;;;;;;5037109;28;19925;-65
2022/03/04 00:58:21;;;;;;;;;;;0.60;99.90;;;;;;5070462;28;19924;-65
2022/03/04 01:00:47;;;;;;;;;;;0.60;99.90;;;;;;5069586;28;19932;-64
2022/03/04 01:03:12;;;;;;;;;;;0.60;99.90;;;;;;5069732;28;20387;-65
2022/03/04 01:05:38;;;;;;;;;;;0.60;99.90;;;;;;5069984;28;19972;-65
2022/03/04 01:08:04;;;;;;;;;;;0.60;99.90;;;;;;5069885;28;19929;-68
2022/03/04 01:10:29;;;;;;;;;;;0.50;99.90;;;;;;5052557;28;19925;-66
2022/03/04 01:12:55;;;;;;;;;;;0.50;99.90;;;;;;5052963;28;19974;-66
2022/03/04 01:15:20;;;;;;;;;;;0.50;99.90;;;;;;5052830;28;19924;-64
2022/03/04 01:17:46;;;;;;;;;;;0.40;99.90;;;;;;5071986;28;19924;-65
2022/03/04 01:20:12;;;;;;;;;;;0.50;99.90;;;;;;5056470;28;19925;-64
2022/03/04 01:22:37;;;;;;;;;;;0.40;99.90;;;;;;5056895;28;19936;-65
2022/03/04 01:25:03;;;;;;;;;;;0.40;99.90;;;;;;5073462;28;19947;-67
2022/03/04 01:27:29;;;;;;;;;;;0.40;99.90;;;;;;5073648;28;19924;-65
2022/03/04 01:29:54;;;;;;;;;;;0.40;99.90;;;;;;5074301;28;19925;-67
2022/03/04 01:32:20;;;;;;;;;;;0.50;99.90;;;;;;5055672;28;20363;-66
2022/03/04 01:34:45;;;;;;;;;;;0.40;99.90;;;;;;5072982;28;20019;-66
2022/03/04 01:37:11;;;;;;;;;;;1.10;99.90;;;;;;5072572;28;19931;-66
2022/03/04 01:39:37;;;;;;;;;;;0.50;99.90;;;;;;5106839;28;19929;-64
2022/03/04 01:42:03;;;;;;;;;;;0.30;99.90;;;;;;5073003;28;19924;-64
2022/03/04 01:44:28;;;;;;;;;;;0.30;99.90;;;;;;5073626;28;20060;-66
2022/03/04 01:46:54;;;;;;;;;;;0.40;99.90;;;;;;5056309;28;20354;-65
2022/03/04 01:49:20;;;;;;;;;;;0.80;99.90;;;;;;5073527;28;19931;-65
2022/03/04 01:51:46;;;;;;;;;;;0.30;99.90;;;;;;5055863;28;19924;-65
2022/03/04 01:54:11;;;;;;;;;;;0.40;99.90;;;;;;5055583;28;19930;-69
2022/03/04 01:56:37;;;;;;;;;;;0.30;99.90;;;;;;5056039;28;19954;-65
2022/03/04 01:59:03;;;;;;;;;;;0.40;99.90;;;;;;5073618;28;19953;-65
2022/03/04 02:01:28;;;;;;;;;;;0.30;99.90;;;;;;5071615;28;20365;-65
2022/03/04 02:03:54;;;;;;;;;;;0.40;99.90;;;;;;5073765;28;19931;-67
2022/03/04 02:06:20;;;;;;;;;;;0.30;99.90;;;;;;5055159;28;20015;-66
2022/03/04 02:08:46;;;;;;;;;;;0.30;99.90;;;;;;5055970;28;20325;-65
2022/03/04 02:11:11;;;;;;;;;;;0.40;99.90;;;;;;5072407;28;20286;-68
2022/03/04 02:13:38;;;;;;;;;;;0.20;99.90;;;;;;5055607;28;19928;-64
2022/03/04 02:16:10;;;;;;;;;;;0.20;99.90;;;;;;5072329;28;19931;-66
2022/03/04 02:18:36;;;;;;;;;;;0.20;99.90;;;;;;5072013;28;19985;-64
2022/03/04 02:21:02;;;;;;;;;;;0.70;99.90;;;;;;5055669;28;19924;-65
2022/03/04 02:23:28;;;;;;;;;;;0.20;99.90;;;;;;5071862;28;19934;-65
2022/03/04 02:25:53;;;;;;;;;;;0.20;99.90;;;;;;5055533;28;20352;-65
2022/03/04 02:28:20;;;;;;;;;;;0.20;99.90;;;;;;5071562;28;20023;-64
2022/03/04 02:30:46;;;;;;;;;;;0.10;99.90;;;;;;5072196;28;19944;-64
2022/03/04 02:33:11;;;;;;;;;;;0.10;99.90;;;;;;5072074;28;19925;-65
2022/03/04 02:35:39;;;;;;;;;;;0.20;99.90;;;;;;5071404;28;19924;-65
2022/03/04 02:38:04;;;;;;;;;;;0.10;99.90;;;;;;5071438;28;19924;-65
2022/03/04 02:40:30;;;;;;;;;;;0.10;99.90;;;;;;5071620;28;19924;-65
2022/03/04 02:42:56;;;;;;;;;;;0.10;99.90;;;;;;5071779;28;19925;-65
2022/03/04 02:45:22;;;;;;;;;;;0.30;99.90;;;;;;5072284;28;19986;-64
2022/03/04 02:47:47;;;;;;;;;;;0.10;99.90;;;;;;5071880;28;19929;-65
2022/03/04 02:50:13;;;;;;;;;;;0.10;99.90;;;;;;5054890;28;20425;-65
2022/03/04 02:52:39;;;;;;;;;;;0.10;99.90;;;;;;5070964;28;20017;-65
2022/03/04 02:55:09;;;;;;;;;;;0.20;99.90;;;;;;5071760;28;20370;-65
2022/03/04 02:57:36;;;;;;;;;;;0.00;99.90;;;;;;5054606;28;19986;-66
2022/03/04 03:00:02;;;;;;;;;;;0.00;99.90;;;;;;5054533;28;20015;-65
2022/03/04 03:02:28;;;;;;;;;;;0.00;99.90;;;;;;5054185;28;19982;-65
2022/03/04 03:04:54;;;;;;;;;;;0.00;99.90;;;;;;5072501;28;19924;-66
2022/03/04 03:07:19;;;;;;;;;;;0.00;99.90;;;;;;5037665;28;19975;-69
2022/03/04 03:09:45;;;;;;;;;;;-0.10;99.90;;;;;;5071354;28;19940;-66
2022/03/04 03:12:10;;;;;;;;;;;-0.10;99.90;;;;;;5071087;28;20381;-65
2022/03/04 03:14:36;;;;;;;;;;;0.10;99.90;;;;;;5072267;28;19924;-65
2022/03/04 03:17:02;;;;;;;;;;;-0.20;99.90;;;;;;5071154;28;19924;-66
2022/03/04 03:19:27;;;;;;;;;;;-0.20;99.90;;;;;;5070842;28;19928;-65
2022/03/04 03:21:53;;;;;;;;;;;-0.20;99.90;;;;;;5088332;28;20002;-66
2022/03/04 03:24:18;;;;;;;;;;;-0.20;99.90;;;;;;5070850;28;20382;-66
2022/03/04 03:26:44;;;;;;;;;;;-0.20;99.90;;;;;;5104353;28;19932;-65
2022/03/04 03:29:09;;;;;;;;;;;-0.20;99.90;;;;;;5070524;28;20293;-65
2022/03/04 03:31:35;;;;;;;;;;;-0.10;99.90;;;;;;5071478;28;19978;-64
2022/03/04 03:34:01;;;;;;;;;;;-0.20;99.90;;;;;;5070880;28;20469;-64
2022/03/04 03:36:26;;;;;;;;;;;-0.30;99.90;;;;;;5070063;28;20541;-65
2022/03/04 03:38:52;;;;;;;;;;;-0.30;99.90;;;;;;5070520;28;19925;-65
2022/03/04 03:41:17;;;;;;;;;;;-0.30;99.90;;;;;;5071058;28;19929;-66
2022/03/04 03:43:43;;;;;;;;;;;-0.30;99.90;;;;;;5070160;28;19921;-66
2022/03/04 03:46:09;;;;;;;;;;;-0.30;99.90;;;;;;5070323;28;19972;-65
2022/03/04 03:48:38;;;;;;;;;;;-0.40;99.90;;;;;;5071066;28;19935;-66
2022/03/04 03:51:04;;;;;;;;;;;-0.40;99.90;;;;;;5071477;28;19932;-65
2022/03/04 03:53:30;;;;;;;;;;;-0.40;99.90;;;;;;5103593;28;19979;-65
2022/03/04 03:55:55;;;;;;;;;;;-0.40;99.90;;;;;;5037123;28;19972;-65
2022/03/04 03:58:21;;;;;;;;;;;-0.40;99.90;;;;;;5070581;28;19932;-65
2022/03/04 04:00:46;;;;;;;;;;;-0.50;99.90;;;;;;5052965;28;20003;-65
2022/03/04 04:03:12;;;;;;;;;;;-0.50;99.90;;;;;;5053939;28;19930;-65
2022/03/04 04:05:38;;;;;;;;;;;-0.30;99.90;;;;;;5069816;28;19928;-66
2022/03/04 04:08:03;;;;;;;;;;;0.20;99.90;;;;;;5070069;28;20283;-66
2022/03/04 04:10:29;;;;;;;;;;;-0.60;99.90;;;;;;5070099;28;19925;-68
2022/03/04 04:12:54;;;;;;;;;;;-0.50;99.90;;;;;;5053305;28;20000;-65
2022/03/04 04:15:20;;;;;;;;;;;-0.60;99.90;;;;;;5070480;28;19938;-65
2022/03/04 04:17:46;;;;;;;;;;;-0.60;99.90;;;;;;5053005;28;19925;-65
2022/03/04 04:20:11;;;;;;;;;;;-0.70;99.90;;;;;;5070147;28;20469;-65
2022/03/04 04:22:37;;;;;;;;;;;-0.60;99.90;;;;;;5070200;28;19948;-66
2022/03/04 04:25:03;;;;;;;;;;;-0.60;99.90;;;;;;5070524;28;19968;-66
2022/03/04 04:27:28;;;;;;;;;;;-0.70;99.90;;;;;;5069942;28;20020;-68
2022/03/04 04:29:54;;;;;;;;;;;-0.60;99.90;;;;;;5069823;28;19924;-64
2022/03/04 04:32:19;;;;;;;;;;;-0.20;99.90;;;;;;5069575;28;19931;-65
2022/03/04 04:34:45;;;;;;;;;;;-0.50;99.90;;;;;;5052572;28;19925;-64
2022/03/04 04:37:10;;;;;;;;;;;-0.60;99.90;;;;;;5070109;28;20011;-65
2022/03/04 04:39:36;;;;;;;;;;;-0.60;99.90;;;;;;5052956;28;19924;-65
2022/03/04 04:42:02;;;;;;;;;;;-0.70;99.90;;;;;;5069942;28;19924;-65
2022/03/04 04:44:27;;;;;;;;;;;-0.70;99.90;;;;;;5069937;28;20524;-64
2022/03/04 04:46:53;;;;;;;;;;;-0.70;99.90;;;;;;5053143;28;20274;-65
2022/03/04 04:49:19;;;;;;;;;;;-0.70;99.90;;;;;;5070054;28;19925;-65
2022/03/04 04:51:44;;;;;;;;;;;-0.70;99.90;;;;;;5038672;28;19924;-65
2022/03/04 04:54:10;;;;;;;;;;;-0.70;99.90;;;;;;5057381;28;20277;-65
2022/03/04 04:56:36;;;;;;;;;;;-0.60;99.90;;;;;;5073183;28;20377;-65
2022/03/04 04:59:01;;;;;;;;;;;-0.80;99.90;;;;;;5073977;28;19924;-65
2022/03/04 05:01:27;;;;;;;;;;;-0.80;99.90;;;;;;5073502;28;20142;-65
2022/03/04 05:03:52;;;;;;;;;;;-0.80;99.90;;;;;;5074423;28;19928;-64
2022/03/04 05:06:18;;;;;;;;;;;-0.80;99.90;;;;;;5056829;28;19928;-65
2022/03/04 05:08:44;;;;;;;;;;;-0.80;99.90;;;;;;5056332;28;19924;-65
2022/03/04 05:11:09;;;;;;;;;;;-0.80;99.90;;;;;;5072880;28;19983;-65
2022/03/04 05:13:35;;;;;;;;;;;-0.80;99.90;;;;;;5056528;28;19971;-69
2022/03/04 05:16:00;;;;;;;;;;;-0.80;99.90;;;;;;5073200;28;19932;-64
2022/03/04 05:18:26;;;;;;;;;;;-0.80;99.90;;;;;;5056426;28;19924;-65
2022/03/04 05:20:52;;;;;;;;;;;-0.80;99.90;;;;;;5072800;28;19924;-65
2022/03/04 05:24:03;;;;;;;;;;;-0.80;99.90;;;;;;5089824;28;19929;-65
2022/03/04 05:26:03;;;;;;;;;;;-0.90;99.90;;;;;;5082464;28;19925;-64
2022/03/04 05:28:29;;;;;;;;;;;-0.80;99.90;;;;;;5073006;28;19924;-64
2022/03/04 05:30:54;;;;;;;;;;;-0.90;99.90;;;;;;5039183;28;20514;-65
2022/03/04 05:33:20;;;;;;;;;;;-0.90;99.90;;;;;;5056383;28;19924;-65
2022/03/04 05:35:46;;;;;;;;;;;-0.60;99.90;;;;;;5056007;28;19925;-65
2022/03/04 05:38:11;;;;;;;;;;;-0.90;99.90;;;;;;5072855;28;19924;-65
2022/03/04 05:40:37;;;;;;;;;;;-0.90;99.90;;;;;;5055957;28;20015;-69
2022/03/04 05:43:02;;;;;;;;;;;-0.90;99.90;;;;;;5072789;28;19931;-64
2022/03/04 05:45:28;;;;;;;;;;;-0.80;99.90;;;;;;5056363;28;19924;-65
2022/03/04 05:47:57;;;;;;;;;;;-0.80;99.90;;;;;;5072535;28;19932;-65
2022/03/04 05:50:22;;;;;;;;;;;-0.80;99.90;;;;;;5073069;28;19979;-66
2022/03/04 05:52:48;;;;;;;;;;;-0.80;99.90;;;;;;5072105;28;20041;-65
2022/03/04 05:55:13;;;;;;;;;;;-0.80;99.90;;;;;;5055895;28;19925;-65
2022/03/04 05:57:39;;;;;;;;;;;-0.90;99.90;;;;;;5073729;28;19931;-69
2022/03/04 06:00:05;;;;;;;;;;;-0.90;99.90;;;;;;5072193;28;20462;-66
2022/03/04 06:02:31;;;;;;;;;;;-0.90;99.90;;;;;;5072072;28;19931;-66
2022/03/04 06:04:56;;;;;;;;;;;-0.90;99.90;;;;;;5073297;28;20382;-65
2022/03/04 06:07:22;;;;;;;;;;;-0.90;99.90;;;;;;5072537;28;20375;-65
2022/03/04 06:09:47;;;;;;;;;;;-0.90;99.90;;;;;;5055047;28;19978;-65
2022/03/04 06:12:13;;;;;;;;;;;-0.90;99.90;;;;;;5072052;28;19924;-65
2022/03/04 06:14:39;;;;;;;;;;;-0.90;99.90;;;;;;5073282;28;19978;-64
2022/03/04 06:17:04;;;;;;;;;;;-0.80;99.90;;;;;;5071851;28;20376;-65
2022/03/04 06:19:30;;;;;;;;;;;-0.80;99.90;;;;;;5072361;28;20249;-65
2022/03/04 06:21:55;;;;;;;;;;;-0.90;99.90;;;;;;5071447;28;19986;-64
2022/03/04 06:24:21;;;;;;;;;;;-0.90;99.90;;;;;;5071520;28;20306;-65
2022/03/04 06:26:47;;;;;;;;;;;-0.90;99.90;;;;;;5071543;28;19936;-64
2022/03/04 06:29:13;;;;;;;;;;;-0.80;99.90;;;;;;5071673;28;19931;-65
2022/03/04 06:31:38;;;;;;;;;;;-0.30;99.90;;;;;;5071584;28;20330;-66
2022/03/04 06:34:04;;;;;;;;;;;-0.80;99.90;;;;;;5071444;28;19921;-65
2022/03/04 06:36:29;;;;;;;;;;;-0.80;99.90;;;;;;5073045;28;19931;-64
2022/03/04 06:38:55;;;;;;;;;;;-0.70;99.90;;;;;;5054422;28;20378;-64
2022/03/04 06:41:21;;;;;;;;;;;-0.70;99.90;;;;;;5054785;28;20007;-64
2022/03/04 06:43:48;;;;;;;;;;;-0.60;99.90;;;;;;5071063;28;19924;-68
2022/03/04 06:46:14;;;;;;;;;;;-0.70;99.90;;;;;;5072671;28;19924;-63
2022/03/04 06:48:40;;;;;;;;;;;-0.70;99.90;;;;;;5071347;28;19924;-63
2022/03/04 06:51:05;;;;;;;;;;;-0.60;99.90;;;;;;5072344;28;19981;-66
2022/03/04 06:53:31;;;;;;;;;;;-0.60;99.90;;;;;;5071121;28;19928;-64
2022/03/04 06:55:57;;;;;;;;;;;-0.70;99.90;;;;;;5054302;28;20325;-64
2022/03/04 06:58:22;;;;;;;;;;;-0.70;99.90;;;;;;5072395;28;19925;-64
2022/03/04 07:00:48;;;;;;;;;;;-0.70;99.90;;;;;;5070574;28;19932;-69
2022/03/04 07:03:14;;;;;;;;;;;-0.60;99.90;;;;;;5072450;28;19930;-64
2022/03/04 07:05:40;;;;;;;;;;;-0.70;99.90;;;;;;5054457;28;19978;-66
2022/03/04 07:08:11;;;;;;;;;;;-0.70;99.90;;;;;;5069389;28;19924;-67
2022/03/04 07:10:37;;;;;;;;;;;-0.70;99.90;;;;;;5072176;28;20019;-63
2022/03/04 07:13:03;;;;;;;;;;;-0.60;99.90;;;;;;5070288;28;19932;-63
2022/03/04 07:15:29;;;;;;;;;;;-0.70;99.90;;;;;;5070892;28;19925;-63
2022/03/04 07:17:54;;;;;;;;;;;-0.60;99.90;;;;;;5070499;28;20004;-63
2022/03/04 07:20:20;;;;;;;;;;;-0.70;99.90;;;;;;5072237;28;19924;-63
2022/03/04 07:22:46;;;;;;;;;;;-0.60;99.90;;;;;;5070708;28;20003;-64
2022/03/04 07:25:12;;;;;;;;;;;-0.70;99.90;;;;;;5053666;28;19935;-64
2022/03/04 07:27:39;;;;;;;;;;;-0.60;99.90;;;;;;5053737;28;19936;-67
2022/03/04 07:30:06;;;;;;;;;;;-0.20;99.90;;;;;;5069852;28;19928;-64
2022/03/04 07:32:32;;;;;;;;;;;-0.50;99.90;;;;;;5070198;28;19931;-64
2022/03/04 07:34:58;;;;;;;;;;;-0.40;99.90;;;;;;5068859;28;19932;-65
2022/03/04 07:37:24;;;;;;;;;;;-0.10;99.90;;;;;;5069414;28;19932;-64
2022/03/04 07:39:50;;;;;;;;;;;-0.20;99.90;;;;;;5103789;28;19928;-64
2022/03/04 07:42:15;;;;;;;;;;;-0.50;99.90;;;;;;5070262;28;19924;-65
2022/03/04 07:44:41;;;;;;;;;;;-0.40;99.90;;;;;;5071376;28;20404;-64
2022/03/04 07:47:09;;;;;;;;;;;-0.40;99.90;;;;;;5053381;28;20523;-66
2022/03/04 07:49:35;;;;;;;;;;;-0.30;99.90;;;;;;5104401;28;19954;-62
2022/03/04 07:52:01;;;;;;;;;;;-0.20;99.90;;;;;;5069814;28;19998;-62
2022/03/04 07:54:26;;;;;;;;;;;-0.20;99.90;;;;;;5070443;28;19924;-63
2022/03/04 07:56:52;;;;;;;;;;;-0.20;99.90;;;;;;5069992;28;19932;-65
2022/03/04 07:59:18;;;;;;;;;;;-0.20;99.90;;;;;;5069700;28;19929;-64
2022/03/04 08:01:44;;;;;;;;;;;-0.20;99.90;;;;;;5071409;28;19935;-64
2022/03/04 08:04:11;;;;;;;;;;;-0.20;99.90;;;;;;5053292;28;20023;-64
2022/03/04 08:06:38;;;;;;;;;;;-0.20;99.90;;;;;;5069999;28;20390;-64
2022/03/04 08:09:03;;;;;;;;;;;-0.10;99.90;;;;;;5069594;28;19924;-65
2022/03/04 08:11:29;;;;;;;;;;;-0.10;99.90;;;;;;5071344;28;19925;-63
2022/03/04 08:13:55;;;;;;;;;;;0.00;99.90;;;;;;5069869;28;19924;-67
2022/03/04 08:16:20;;;;;;;;;;;0.10;99.90;;;;;;5069629;28;20297;-64
2022/03/04 08:18:47;;;;;;;;;;;0.20;99.90;;;;;;5103986;28;20418;-63
2022/03/04 08:21:13;;;;;;;;;;;0.20;99.90;;;;;;5069358;28;19971;-63
2022/03/04 08:23:38;;;;;;;;;;;0.30;99.90;;;;;;5071207;28;19930;-62
2022/03/04 08:26:04;;;;;;;;;;;0.30;99.90;;;;;;5070992;28;20285;-65
2022/03/04 08:28:32;;;;;;;;;;;0.30;99.90;;;;;;5075070;28;20094;-64
2022/03/04 08:30:58;;;;;;;;;;;0.30;99.90;;;;;;5073665;28;20516;-71
2022/03/04 08:33:24;;;;;;;;;;;0.30;99.90;;;;;;5074839;28;19981;-65
2022/03/04 08:35:50;;;;;;;;;;;0.70;99.90;;;;;;5075183;28;19935;-65
2022/03/04 08:38:16;;;;;;;;;;;0.50;99.90;;;;;;5073950;28;19946;-65
2022/03/04 08:40:42;;;;;;;;;;;0.60;99.90;;;;;;5075097;28;20026;-62
2022/03/04 08:43:07;;;;;;;;;;;0.80;99.90;;;;;;5073281;28;20297;-66
2022/03/04 08:45:33;;;;;;;;;;;0.70;99.90;;;;;;5073334;28;20373;-63
2022/03/04 08:47:59;;;;;;;;;;;0.70;99.90;;;;;;5107842;28;19929;-69
2022/03/04 08:50:25;;;;;;;;;;;0.70;99.90;;;;;;5107206;28;20481;-63
2022/03/04 08:52:51;;;;;;;;;;;0.70;99.90;;;;;;5072971;28;20018;-63
2022/03/04 08:55:17;;;;;;;;;;;0.60;99.90;;;;;;5073391;28;20038;-65
2022/03/04 08:57:46;;;;;;;;;;;0.60;99.90;;;;;;5073059;28;19924;-64
2022/03/04 09:00:13;;;;;;;;;;;0.80;99.90;;;;;;5072524;28;19925;-64
2022/03/04 09:02:39;;;;;;;;;;;0.90;99.90;;;;;;5073752;28;20370;-64
2022/03/04 09:05:05;;;;;;;;;;;1.20;99.90;;;;;;5073050;28;19924;-64
2022/03/04 09:07:31;;;;;;;;;;;1.40;99.90;;;;;;5073656;28;19924;-64
2022/03/04 09:09:57;;;;;;;;;;;1.40;99.90;;;;;;5074255;28;20393;-64
2022/03/04 09:12:23;;;;;;;;;;;1.30;99.90;;;;;;5074411;28;20156;-63
2022/03/04 09:14:49;;;;;;;;;;;1.30;99.90;;;;;;5074722;28;19924;-62
2022/03/04 09:17:14;;;;;;;;;;;1.20;99.90;;;;;;5074227;28;20039;-63
2022/03/04 09:19:40;;;;;;;;;;;1.40;99.90;;;;;;5074511;28;20378;-67
2022/03/04 09:22:06;;;;;;;;;;;1.70;99.90;;;;;;5074233;28;19928;-63
2022/03/04 09:24:32;;;;;;;;;;;2.10;99.90;;;;;;5074579;28;19935;-64
2022/03/04 09:26:57;;;;;;;;;;;2.40;99.90;;;;;;5074448;28;20436;-63
2022/03/04 09:29:23;;;;;;;;;;;2.60;99.90;;;;;;5072496;28;20197;-64
2022/03/04 09:31:49;;;;;;;;;;;2.60;99.90;;;;;;5072888;28;19924;-64
2022/03/04 09:34:15;;;;;;;;;;;2.70;99.90;;;;;;5073721;28;20366;-64
2022/03/04 09:36:40;;;;;;;;;;;2.80;99.90;;;;;;5073958;28;19925;-63
2022/03/04 09:39:06;;;;;;;;;;;2.90;99.90;;;;;;5072460;28;19968;-63
2022/03/04 09:41:32;;;;;;;;;;;2.90;99.90;;;;;;5056052;28;19970;-64
2022/03/04 09:43:58;;;;;;;;;;;2.70;99.90;;;;;;5074096;28;20442;-63
2022/03/04 09:46:23;;;;;;;;;;;2.60;99.90;;;;;;5073530;28;19931;-63
2022/03/04 09:48:50;;;;;;;;;;;2.80;99.90;;;;;;5072808;28;19924;-64
2022/03/04 09:51:15;;;;;;;;;;;2.90;99.90;;;;;;5073599;28;19975;-63
2022/03/04 09:53:41;;;;;;;;;;;3.00;99.90;;;;;;5074075;28;19924;-63
2022/03/04 09:56:07;;;;;;;;;;;2.90;99.90;;;;;;5072656;28;19924;-70
2022/03/04 09:58:33;;;;;;;;;;;2.90;99.90;;;;;;5072888;28;19928;-63
2022/03/04 10:00:59;;;;;;;;;;;2.90;99.90;;;;;;5072257;28;19931;-63
2022/03/04 10:03:31;;;;;;;;;;;2.80;99.90;;;;;;5073523;28;20015;-63
2022/03/04 10:05:57;;;;;;;;;;;2.90;99.90;;;;;;5072454;28;19924;-64
2022/03/04 10:08:26;;;;;;;;;;;3.00;99.90;;;;;;5071426;28;19925;-63
2022/03/04 10:10:53;;;;;;;;;;;3.10;99.90;;;;;;5073342;28;20396;-64
2022/03/04 10:13:38;;;;;;;;;;;3.20;99.90;;;;;;5073184;28;19925;-64
2022/03/04 10:16:04;;;;;;;;;;;3.30;99.90;;;;;;5055177;28;19974;-64
2022/03/04 10:18:30;;;;;;;;;;;3.10;99.90;;;;;;5071537;28;20010;-65
2022/03/04 10:20:56;;;;;;;;;;;3.10;99.90;;;;;;5072191;28;20411;-62
2022/03/04 10:23:22;;;;;;;;;;;3.20;99.90;;;;;;5071310;28;19967;-64
2022/03/04 10:25:49;;;;;;;;;;;3.20;99.90;;;;;;5072211;28;19978;-66
2022/03/04 10:28:15;;;;;;;;;;;3.30;99.90;;;;;;5072883;28;19936;-64
2022/03/04 10:30:42;;;;;;;;;;;3.30;99.90;;;;;;5072724;28;19924;-64
2022/03/04 10:33:12;;;;;;;;;;;3.40;99.90;;;;;;5072775;28;19928;-65
2022/03/04 10:35:38;;;;;;;;;;;3.40;99.90;;;;;;5071947;28;19929;-64
2022/03/04 10:38:04;;;;;;;;;;;3.50;99.90;;;;;;5089024;28;19924;-64
2022/03/04 10:40:31;;;;;;;;;;;3.70;99.90;;;;;;5070897;28;19981;-64
2022/03/04 10:42:58;;;;;;;;;;;3.80;99.90;;;;;;5071689;28;19931;-68
2022/03/04 10:45:24;;;;;;;;;;;4.00;99.90;;;;;;5070622;28;19929;-63
2022/03/04 10:47:51;;;;;;;;;;;4.10;99.90;;;;;;5071477;28;19924;-66
2022/03/04 10:50:17;;;;;;;;;;;4.10;99.90;;;;;;5071075;28;19925;-69
2022/03/04 10:52:51;;;;;;;;;;;4.10;99.90;;;;;;5071324;28;20266;-65
2022/03/04 10:55:25;;;;;;;;;;;4.10;99.90;;;;;;5070931;28;20232;-64
2022/03/04 10:57:51;;;;;;;;;;;4.10;99.90;;;;;;5070714;28;20011;-63
2022/03/04 11:00:23;;;;;;;;;;;4.10;99.90;;;;;;5070797;28;19967;-70
2022/03/04 11:02:48;;;;;;;;;;;4.20;99.90;;;;;;5070707;28;19925;-65
2022/03/04 11:05:14;;;;;;;;;;;4.30;99.90;;;;;;5072762;28;20293;-63
2022/03/04 11:07:42;;;;;;;;;;;4.40;99.90;;;;;;5072599;28;19964;-63
2022/03/04 11:10:08;;;;;;;;;;;4.40;99.90;;;;;;5073378;28;19932;-63
2022/03/04 11:12:34;;;;;;;;;;;4.50;99.90;;;;;;5071184;28;19924;-64
2022/03/04 11:15:00;;;;;;;;;;;4.70;99.90;;;;;;5072328;28;19924;-65
2022/03/04 11:17:28;;;;;;;;;;;4.80;99.90;;;;;;5104918;28;20339;-64
2022/03/04 11:19:54;;;;;;;;;;;4.80;99.90;;;;;;5054409;28;19928;-63
2022/03/04 11:22:19;;;;;;;;;;;4.90;99.90;;;;;;5071686;28;20082;-69
2022/03/04 11:24:46;;;;;;;;;;;4.90;99.90;;;;;;5071564;28;19924;-64
2022/03/04 11:27:14;;;;;;;;;;;5.10;99.90;;;;;;5070631;28;20019;-64
2022/03/04 11:29:39;;;;;;;;;;;5.10;99.90;;;;;;5070140;28;19935;-65
2022/03/04 11:32:09;;;;;;;;;;;5.10;99.90;;;;;;5071939;28;19925;-65
2022/03/04 11:34:42;;;;;;;;;;;5.30;99.90;;;;;;5070045;28;20286;-63
2022/03/04 11:37:15;;;;;;;;;;;5.30;99.90;;;;;;5071763;28;20278;-63
2022/03/04 11:40:00;;;;;;;;;;;5.40;99.90;;;;;;5070091;28;19924;-63
2022/03/04 11:42:34;;;;;;;;;;;5.40;99.90;;;;;;5070259;28;19989;-63
2022/03/04 11:45:02;;;;;;;;;;;5.50;99.90;;;;;;5071979;28;19939;-63
2022/03/04 11:47:30;;;;;;;;;;;5.50;99.90;;;;;;5071329;28;19929;-63
2022/03/04 11:49:56;;;;;;;;;;;5.60;99.90;;;;;;5071562;28;19924;-62
2022/03/04 11:52:24;;;;;;;;;;;5.70;99.90;;;;;;5071219;28;20394;-63
2022/03/04 11:54:50;;;;;;;;;;;5.70;99.90;;;;;;5070510;28;19940;-64
2022/03/04 11:57:16;;;;;;;;;;;5.70;99.90;;;;;;5070609;28;19924;-62
2022/03/04 12:00:02;;;;;;;;;;;5.70;99.90;;;;;;5070761;28;20015;-63
2022/03/04 12:02:40;;;;;;;;;;;5.70;99.90;;;;;;5068048;28;20286;-63
2022/03/04 12:05:32;;;;;;;;;;;5.70;99.90;;;;;;5070674;28;19930;-63
2022/03/04 12:08:01;;;;;;;;;;;5.80;99.90;;;;;;5071588;28;19929;-64
2022/03/04 12:10:29;;;;;;;;;;;6.00;99.90;;;;;;5071285;28;19924;-68
2022/03/04 12:12:58;;;;;;;;;;;6.00;99.90;;;;;;5070156;28;20390;-64
2022/03/04 12:15:24;;;;;;;;;;;6.10;99.90;;;;;;5071540;28;19925;-62
2022/03/04 12:18:03;;;;;;;;;;;6.10;99.90;;;;;;5053441;28;20288;-62
2022/03/04 12:20:41;;;;;;;;;;;6.20;99.90;;;;;;5069899;28;20328;-69
2022/03/04 12:23:07;;;;;;;;;;;6.20;99.90;;;;;;5070538;28;19932;-64
2022/03/04 12:25:51;;;;;;;;;;;6.20;99.90;;;;;;5071194;28;20262;-65
2022/03/04 12:28:17;;;;;;;;;;;6.20;99.90;;;;;;5070334;28;19928;-63
2022/03/04 12:30:43;;;;;;;;;;;6.30;99.90;;;;;;5070941;28;19976;-64
2022/03/04 12:33:10;;;;;;;;;;;6.30;99.90;;;;;;5070127;28;19980;-63
2022/03/04 12:35:36;;;;;;;;;;;6.40;99.90;;;;;;5103972;28;20307;-63
2022/03/04 12:38:01;;;;;;;;;;;6.40;99.90;;;;;;5069911;28;19924;-63
2022/03/04 12:40:28;;;;;;;;;;;6.40;99.90;;;;;;5071182;28;19950;-63
2022/03/04 12:42:55;;;;;;;;;;;6.40;99.90;;;;;;5070712;28;19970;-63
2022/03/04 12:45:20;;;;;;;;;;;6.40;99.90;;;;;;5070182;28;19964;-63
2022/03/04 12:47:46;;;;;;;;;;;6.40;99.90;;;;;;5070693;28;19976;-63
2022/03/04 12:50:12;;;;;;;;;;;6.40;99.90;;;;;;5053350;28;19924;-64
2022/03/04 12:52:39;;;;;;;;;;;6.50;99.90;;;;;;5069291;28;20015;-63
2022/03/04 12:55:05;;;;;;;;;;;6.40;99.90;;;;;;5070971;28;19972;-63
2022/03/04 12:57:31;;;;;;;;;;;6.40;99.90;;;;;;5071109;28;19930;-68
2022/03/04 12:59:58;;;;;;;;;;;6.50;99.90;;;;;;5069173;28;20023;-63
2022/03/04 13:02:32;;;;;;;;;;;6.50;99.90;;;;;;5070014;28;19932;-63
2022/03/04 13:04:59;;;;;;;;;;;6.50;99.90;;;;;;5069419;28;20390;-64
2022/03/04 13:07:24;;;;;;;;;;;6.40;99.90;;;;;;5070925;28;20058;-62
2022/03/04 13:09:51;;;;;;;;;;;6.50;99.90;;;;;;5069533;28;20388;-61
2022/03/04 13:12:20;;;;;;;;;;;6.50;99.90;;;;;;5054502;28;19924;-64
2022/03/04 13:14:45;;;;;;;;;;;6.50;99.90;;;;;;5073897;28;19979;-62
2022/03/04 13:17:12;;;;;;;;;;;6.60;99.90;;;;;;5073324;28;19976;-62
2022/03/04 13:19:39;;;;;;;;;;;6.60;99.90;;;;;;5073053;28;19932;-63
2022/03/04 13:22:08;;;;;;;;;;;6.60;99.90;;;;;;5074302;28;19924;-63
2022/03/04 13:24:57;;;;;;;;;;;6.60;99.90;;;;;;5072964;28;19943;-63
2022/03/04 13:27:23;;;;;;;;;;;6.60;99.90;;;;;;5065203;28;20041;-62
2022/03/04 13:29:55;;;;;;;;;;;6.60;99.90;;;;;;5073813;28;20007;-64
2022/03/04 13:32:28;;;;;;;;;;;6.60;99.90;;;;;;5106904;28;19944;-63
2022/03/04 13:34:57;;;;;;;;;;;6.60;99.90;;;;;;5072222;28;20378;-63
2022/03/04 13:37:24;;;;;;;;;;;6.60;99.90;;;;;;5056378;28;20407;-65
2022/03/04 13:39:55;;;;;;;;;;;6.60;99.90;;;;;;5073680;28;19947;-63
2022/03/04 13:42:28;;;;;;;;;;;6.60;99.90;;;;;;5074135;28;19931;-62
2022/03/04 13:44:55;;;;;;;;;;;6.70;99.90;;;;;;5072565;28;19971;-63
2022/03/04 13:47:30;;;;;;;;;;;6.80;99.90;;;;;;5073816;28;19932;-62
2022/03/04 13:49:56;;;;;;;;;;;6.80;99.90;;;;;;5072199;28;19924;-64
2022/03/04 13:52:21;;;;;;;;;;;6.80;99.90;;;;;;5072728;28;19986;-63
2022/03/04 13:54:52;;;;;;;;;;;6.80;99.90;;;;;;5072285;28;20378;-62
2022/03/04 13:57:28;;;;;;;;;;;6.80;99.90;;;;;;5072621;28;20451;-62
2022/03/04 14:00:03;;;;;;;;;;;6.80;99.90;;;;;;5071828;28;19938;-63
2022/03/04 14:02:37;;;;;;;;;;;6.80;99.90;;;;;;5106716;28;19924;-63
2022/03/04 14:05:02;;;;;;;;;;;6.80;99.90;;;;;;5073530;28;20014;-63
2022/03/04 14:07:28;;;;;;;;;;;6.90;99.90;;;;;;5072002;28;20462;-64
2022/03/04 14:09:56;;;;;;;;;;;6.90;99.90;;;;;;5072389;28;19925;-62
2022/03/04 14:12:22;;;;;;;;;;;6.90;99.90;;;;;;5056111;28;20368;-63
2022/03/04 14:14:49;;;;;;;;;;;7.10;99.90;;;;;;5073272;28;19924;-64
2022/03/04 14:17:15;;;;;;;;;;;7.00;99.90;;;;;;5071986;28;20369;-62
2022/03/04 14:19:40;;;;;;;;;;;7.00;99.90;;;;;;5073446;28;19990;-62
2022/03/04 14:22:06;;;;;;;;;;;7.00;99.90;;;;;;5073003;28;19975;-62
2022/03/04 14:24:32;;;;;;;;;;;7.00;99.90;;;;;;5054922;28;19960;-62